Weather at Mason General Hospital Heliport

Public forecast

Using degrees Fahrenheit for public forecast. Weather courtesy of forecast.io.

Closest aviation weather report (METAR) to Mason General Hospital Heliport

Closest report is Sanderson Field, 1.4 nm (2.7 km) WNW.

2024/07/25 19:53 (retrieved 15 minutes ago)

KSHN 251953Z AUTO 21006G14KT 10SM BKN060 22/09 A3021 RMK AO2 SLP231 T02170089

Closest aviation forecast (TAF) to Mason General Hospital Heliport

Closest forecast is Olympia Regional Airport, 17.7 nm (32.8 km) SSE.

2024/07/25 18:22 (retrieved 2 hours ago)

TAF KOLM 251720Z 2518/2618 22010KT P6SM BKN035 BKN045 FM252000 25007KT P6SM SCT050 BKN120 FM260100 31008KT P6SM BKN200 FM261100 VRB05KT P6SM BKN045